createdAt,value
2018-07-21T00:01:26.836Z,22.00
2018-07-21T00:03:54.960Z,22.00
2018-07-21T00:06:23.087Z,21.90
2018-07-21T00:08:51.214Z,21.80
2018-07-21T00:11:19.360Z,21.80
2018-07-21T00:13:47.489Z,21.80
2018-07-21T00:16:15.620Z,21.70
2018-07-21T00:18:43.763Z,21.70
2018-07-21T00:21:12.130Z,21.60
2018-07-21T00:23:40.252Z,21.60
2018-07-21T00:28:36.281Z,21.50
2018-07-21T00:31:04.425Z,21.50
2018-07-21T00:33:32.553Z,21.50
2018-07-21T00:36:00.844Z,21.50
2018-07-21T00:38:28.976Z,21.50
2018-07-21T00:43:25.007Z,21.50
2018-07-21T00:45:53.124Z,21.50
2018-07-21T00:48:21.261Z,21.50
2018-07-21T00:50:49.393Z,21.50
2018-07-21T00:53:17.530Z,21.50
2018-07-21T00:55:45.671Z,21.50
2018-07-21T00:58:13.817Z,21.50
2018-07-21T01:00:41.969Z,21.50
2018-07-21T01:03:10.106Z,21.50
2018-07-21T01:05:38.224Z,21.50
2018-07-21T01:08:06.445Z,21.50
2018-07-21T01:10:34.565Z,21.60
2018-07-21T01:13:02.699Z,21.60
2018-07-21T01:15:30.814Z,21.60
2018-07-21T01:17:58.934Z,21.60
2018-07-21T01:20:27.065Z,21.60
2018-07-21T01:22:55.189Z,21.60
2018-07-21T01:25:23.309Z,21.60
2018-07-21T01:27:51.533Z,21.60
2018-07-21T01:30:19.647Z,21.60
2018-07-21T01:32:47.781Z,21.50
2018-07-21T01:35:15.895Z,21.60
2018-07-21T01:37:44.026Z,21.50
2018-07-21T01:40:12.230Z,21.60
2018-07-21T01:42:40.370Z,21.50
2018-07-21T01:45:08.498Z,21.60
2018-07-21T01:47:36.630Z,21.50
2018-07-21T01:50:05.002Z,21.50
2018-07-21T01:52:33.135Z,21.50
2018-07-21T01:55:01.241Z,21.50
2018-07-21T01:57:29.424Z,21.50
2018-07-21T01:59:57.584Z,21.50
2018-07-21T02:02:25.705Z,21.50
2018-07-21T02:04:53.828Z,21.50
2018-07-21T02:07:21.937Z,21.50
2018-07-21T02:09:50.054Z,21.50
2018-07-21T02:12:18.181Z,21.50
2018-07-21T02:14:46.306Z,21.50
2018-07-21T02:17:14.412Z,21.50
2018-07-21T02:19:42.709Z,21.50
2018-07-21T02:22:10.870Z,21.50
2018-07-21T02:24:38.980Z,21.50
2018-07-21T02:27:07.125Z,21.50
2018-07-21T02:29:35.241Z,21.50
2018-07-21T02:32:03.358Z,21.50
2018-07-21T02:34:31.509Z,21.50
2018-07-21T02:36:59.717Z,21.50
2018-07-21T02:39:34.348Z,21.40
2018-07-21T02:42:02.469Z,21.50
2018-07-21T02:44:30.586Z,21.40
2018-07-21T02:46:58.713Z,21.40
2018-07-21T02:49:26.837Z,21.40
2018-07-21T02:51:54.987Z,21.40
2018-07-21T02:54:23.206Z,21.40
2018-07-21T02:56:51.360Z,21.40
2018-07-21T02:59:19.569Z,21.40
2018-07-21T03:01:47.674Z,21.40
2018-07-21T03:04:16.838Z,21.40
2018-07-21T03:06:44.994Z,21.40
2018-07-21T03:09:13.410Z,21.40
2018-07-21T03:11:41.702Z,21.50
2018-07-21T03:14:09.889Z,21.50
2018-07-21T03:16:38.001Z,21.40
2018-07-21T03:19:06.145Z,21.40
2018-07-21T03:21:34.505Z,21.40
2018-07-21T03:24:02.754Z,21.50
2018-07-21T03:26:31.054Z,21.40
2018-07-21T03:28:59.295Z,21.50
2018-07-21T03:31:27.518Z,21.40
2018-07-21T03:33:55.640Z,21.50
2018-07-21T03:36:23.759Z,21.50
2018-07-21T03:38:51.898Z,21.50
2018-07-21T03:41:20.010Z,21.50
2018-07-21T03:43:48.190Z,21.50
2018-07-21T03:46:16.317Z,21.40
2018-07-21T03:48:44.413Z,21.40
2018-07-21T03:51:12.735Z,21.40
2018-07-21T03:53:40.838Z,21.50
2018-07-21T03:56:08.956Z,21.40
2018-07-21T03:58:37.089Z,21.40
2018-07-21T04:01:05.248Z,21.40
2018-07-21T04:03:33.353Z,21.40
2018-07-21T04:06:01.481Z,21.40
2018-07-21T04:08:29.725Z,21.40
2018-07-21T04:10:57.923Z,21.40
2018-07-21T04:13:26.031Z,21.40
2018-07-21T04:15:54.197Z,21.40
2018-07-21T04:18:22.378Z,21.40
2018-07-21T04:20:50.491Z,21.30
2018-07-21T04:23:18.630Z,21.30
2018-07-21T04:25:46.861Z,21.30
2018-07-21T04:28:14.973Z,21.30
2018-07-21T04:30:43.089Z,21.30
2018-07-21T04:33:11.198Z,21.30
2018-07-21T04:35:39.418Z,21.20
2018-07-21T04:38:07.565Z,21.20
2018-07-21T04:40:35.726Z,21.20
2018-07-21T04:43:03.950Z,21.20
2018-07-21T04:45:32.138Z,21.20
2018-07-21T04:48:00.325Z,21.20
2018-07-21T04:50:28.562Z,21.10
2018-07-21T04:52:56.833Z,21.10
2018-07-21T04:55:24.982Z,21.10
2018-07-21T04:57:53.090Z,21.00
2018-07-21T05:02:49.143Z,21.00
2018-07-21T05:05:17.268Z,21.00
2018-07-21T05:07:45.459Z,21.00
2018-07-21T05:10:13.642Z,20.90
2018-07-21T05:12:41.773Z,20.90
2018-07-21T05:15:09.933Z,20.90
2018-07-21T05:17:38.058Z,20.90
2018-07-21T05:20:06.336Z,20.90
2018-07-21T05:22:34.467Z,20.90
2018-07-21T05:25:02.589Z,20.90
2018-07-21T05:27:30.714Z,20.90
2018-07-21T05:29:58.820Z,20.80
2018-07-21T05:32:27.009Z,20.80
2018-07-21T05:34:55.568Z,20.90
2018-07-21T05:37:24.001Z,20.80
2018-07-21T05:39:52.123Z,20.90
2018-07-21T05:42:20.286Z,20.90
2018-07-21T05:44:48.495Z,20.80
2018-07-21T05:47:16.658Z,20.90
2018-07-21T05:49:44.757Z,20.80
2018-07-21T05:52:12.888Z,20.90
2018-07-21T05:54:41.062Z,20.90
2018-07-21T05:57:09.130Z,20.80
2018-07-21T05:59:37.321Z,20.80
2018-07-21T06:02:05.573Z,20.90
2018-07-21T06:04:33.685Z,20.80
2018-07-21T06:07:01.813Z,20.90
2018-07-21T06:09:29.926Z,20.90
2018-07-21T06:11:58.055Z,20.80
2018-07-21T06:14:26.161Z,20.90
2018-07-21T06:16:54.303Z,20.90
2018-07-21T06:19:22.433Z,20.90
2018-07-21T06:21:50.633Z,21.00
2018-07-21T06:24:18.721Z,20.90
2018-07-21T06:26:46.869Z,21.00
2018-07-21T06:29:15.006Z,21.00
2018-07-21T06:31:43.138Z,21.00
2018-07-21T06:34:11.261Z,21.00
2018-07-21T06:36:39.389Z,21.00
2018-07-21T06:39:09.141Z,21.10
2018-07-21T06:41:37.321Z,21.10
2018-07-21T06:44:05.650Z,21.10
2018-07-21T06:46:33.815Z,21.10
2018-07-21T06:49:01.925Z,21.10
2018-07-21T06:51:30.070Z,21.10
2018-07-21T06:53:58.285Z,21.10
2018-07-21T06:56:27.017Z,21.20
2018-07-21T06:58:55.474Z,21.20
2018-07-21T07:01:23.624Z,21.20
2018-07-21T07:03:51.762Z,21.20
2018-07-21T07:06:19.881Z,21.30
2018-07-21T07:08:48.017Z,21.20
2018-07-21T07:11:16.145Z,21.30
2018-07-21T07:13:44.301Z,21.30
2018-07-21T07:16:12.470Z,21.30
2018-07-21T07:18:40.633Z,21.30
2018-07-21T07:21:08.764Z,21.30
2018-07-21T07:23:36.895Z,21.30
2018-07-21T07:26:05.030Z,21.40
2018-07-21T07:28:33.162Z,21.40
2018-07-21T07:31:01.277Z,21.40
2018-07-21T07:33:29.410Z,21.40
2018-07-21T07:35:57.537Z,21.40
2018-07-21T07:38:25.678Z,21.40
2018-07-21T07:40:54.109Z,21.40
2018-07-21T07:43:22.249Z,21.40
2018-07-21T07:45:50.368Z,21.40
2018-07-21T07:50:46.413Z,21.40
2018-07-21T07:55:42.485Z,21.40
2018-07-21T07:58:10.758Z,21.40
2018-07-21T08:00:38.874Z,21.40
2018-07-21T08:03:07.017Z,21.40
2018-07-21T08:05:35.312Z,21.30
2018-07-21T08:08:03.441Z,21.30
2018-07-21T08:10:31.581Z,21.30
2018-07-21T08:12:59.705Z,21.30
2018-07-21T08:15:27.841Z,21.30
2018-07-21T08:17:55.970Z,21.30
2018-07-21T08:20:24.102Z,21.30
2018-07-21T08:22:52.238Z,21.30
2018-07-21T08:25:20.353Z,21.20
2018-07-21T08:27:48.487Z,21.20
2018-07-21T08:30:16.653Z,21.20
2018-07-21T08:32:44.776Z,21.20
2018-07-21T08:35:12.918Z,21.20
2018-07-21T08:37:41.061Z,21.20
2018-07-21T08:40:09.465Z,21.20
2018-07-21T08:42:37.592Z,21.10
2018-07-21T08:45:06.320Z,21.10
2018-07-21T08:47:34.434Z,21.10
2018-07-21T08:50:02.557Z,21.10
2018-07-21T08:52:30.673Z,21.00
2018-07-21T08:54:58.805Z,21.00
2018-07-21T08:57:26.935Z,21.00
2018-07-21T08:59:55.065Z,21.00
2018-07-21T09:02:23.198Z,21.00
2018-07-21T09:04:51.338Z,21.00
2018-07-21T09:07:19.570Z,20.90
2018-07-21T09:09:47.749Z,20.90
2018-07-21T09:12:15.937Z,20.90
2018-07-21T09:14:44.076Z,20.90
2018-07-21T09:17:12.210Z,20.90
2018-07-21T09:19:40.388Z,20.90
2018-07-21T09:22:08.562Z,20.90
2018-07-21T09:24:36.698Z,20.90
2018-07-21T09:27:04.809Z,20.90
2018-07-21T09:29:32.972Z,20.90
2018-07-21T09:32:01.122Z,20.90
2018-07-21T09:34:29.241Z,20.90
2018-07-21T09:36:57.363Z,20.90
2018-07-21T09:39:25.487Z,20.90
2018-07-21T09:41:53.618Z,20.90
2018-07-21T09:44:21.774Z,20.90
2018-07-21T09:46:49.925Z,20.90
2018-07-21T09:49:18.226Z,20.90
2018-07-21T09:51:46.313Z,20.90
2018-07-21T09:54:14.440Z,20.90
2018-07-21T09:56:42.561Z,20.90
2018-07-21T09:59:10.685Z,20.90
2018-07-21T10:01:38.867Z,20.90
2018-07-21T10:04:06.977Z,20.90
2018-07-21T10:06:35.124Z,20.90
2018-07-21T10:09:03.570Z,20.90
2018-07-21T10:11:31.706Z,21.00
2018-07-21T10:13:59.873Z,21.00
2018-07-21T10:16:28.001Z,21.00
2018-07-21T10:18:56.152Z,21.00
2018-07-21T10:21:24.413Z,21.00
2018-07-21T10:26:25.999Z,21.00
2018-07-21T10:28:59.705Z,21.00
2018-07-21T10:31:31.115Z,21.00
2018-07-21T10:33:59.362Z,21.00
2018-07-21T10:36:27.482Z,21.00
2018-07-21T10:38:55.619Z,21.00
2018-07-21T10:41:23.752Z,21.10
2018-07-21T10:43:51.873Z,21.10
2018-07-21T10:46:20.005Z,21.10
2018-07-21T10:48:48.180Z,21.10
2018-07-21T10:51:16.353Z,21.10
2018-07-21T10:53:44.469Z,21.00
2018-07-21T10:56:12.654Z,21.10
2018-07-21T10:58:41.030Z,21.00
2018-07-21T11:01:09.270Z,21.00
2018-07-21T11:03:37.382Z,21.00
2018-07-21T11:06:05.521Z,21.00
2018-07-21T11:08:33.695Z,21.00
2018-07-21T11:11:01.829Z,21.00
2018-07-21T11:15:58.064Z,21.00
2018-07-21T11:18:26.261Z,21.00
2018-07-21T11:20:54.405Z,21.00
2018-07-21T11:23:22.620Z,21.00
2018-07-21T11:25:50.736Z,20.90
2018-07-21T11:28:18.865Z,20.90
2018-07-21T11:30:47.068Z,20.90
2018-07-21T11:33:15.184Z,20.90
2018-07-21T11:35:44.200Z,20.90
2018-07-21T11:38:12.151Z,20.90
2018-07-21T11:40:40.296Z,20.90
2018-07-21T11:43:08.426Z,20.90
2018-07-21T11:45:36.557Z,21.00
2018-07-21T11:48:04.885Z,21.00
2018-07-21T11:50:33.021Z,21.00
2018-07-21T11:53:01.133Z,21.00
2018-07-21T11:56:32.413Z,21.00
2018-07-21T11:59:00.566Z,21.00
2018-07-21T12:01:28.729Z,21.00
2018-07-21T12:03:56.861Z,21.00
2018-07-21T12:06:25.012Z,21.00
2018-07-21T12:08:53.133Z,21.00
2018-07-21T12:11:21.262Z,21.00
2018-07-21T12:13:49.413Z,21.00
2018-07-21T12:16:17.617Z,21.10
2018-07-21T12:18:45.734Z,21.20
2018-07-21T12:21:13.870Z,21.20
2018-07-21T12:23:42.002Z,21.20
2018-07-21T12:26:10.134Z,21.30
2018-07-21T12:28:38.244Z,21.30
2018-07-21T12:31:06.382Z,21.30
2018-07-21T12:33:34.531Z,21.40
2018-07-21T12:36:02.645Z,21.40
2018-07-21T12:38:30.772Z,21.40
2018-07-21T12:40:58.901Z,21.40
2018-07-21T12:43:27.116Z,21.40
2018-07-21T12:45:55.281Z,21.50
2018-07-21T12:48:23.402Z,21.50
2018-07-21T12:50:51.533Z,21.50
2018-07-21T12:53:19.668Z,21.50
2018-07-21T12:55:47.784Z,21.60
2018-07-21T13:00:43.829Z,21.60
2018-07-21T13:03:11.973Z,21.60
2018-07-21T13:05:40.072Z,21.60
2018-07-21T13:08:08.595Z,21.60
2018-07-21T13:10:36.742Z,21.70
2018-07-21T13:13:04.885Z,21.70
2018-07-21T13:15:33.037Z,21.70
2018-07-21T13:18:01.153Z,21.80
2018-07-21T13:20:29.275Z,21.80
2018-07-21T13:22:57.609Z,21.80
2018-07-21T13:25:25.733Z,21.80
2018-07-21T13:27:53.929Z,21.80
2018-07-21T13:30:22.048Z,21.80
2018-07-21T13:32:50.193Z,21.90
2018-07-21T13:35:18.326Z,21.90
2018-07-21T13:37:46.444Z,21.90
2018-07-21T13:40:14.553Z,21.90
2018-07-21T13:42:42.681Z,21.90
2018-07-21T13:45:10.796Z,21.90
2018-07-21T13:47:38.912Z,21.90
2018-07-21T13:50:07.065Z,21.90
2018-07-21T13:52:35.196Z,21.80
2018-07-21T13:55:03.327Z,21.80
2018-07-21T13:57:31.453Z,21.80
2018-07-21T13:59:59.601Z,21.80
2018-07-21T14:02:27.743Z,21.80
2018-07-21T14:04:55.869Z,21.80
2018-07-21T14:07:24.018Z,21.80
2018-07-21T14:09:52.133Z,21.80
2018-07-21T14:12:20.304Z,21.80
2018-07-21T14:14:48.457Z,21.80
2018-07-21T14:17:16.583Z,21.80
2018-07-21T14:19:44.719Z,21.80
2018-07-21T14:22:12.854Z,21.80
2018-07-21T14:24:40.977Z,21.90
2018-07-21T14:27:09.113Z,21.90
2018-07-21T14:29:37.293Z,21.90
2018-07-21T14:32:05.396Z,21.90
2018-07-21T14:34:33.513Z,21.90
2018-07-21T14:37:01.647Z,21.90
2018-07-21T14:39:29.873Z,21.90
2018-07-21T14:41:57.989Z,21.90
2018-07-21T14:44:26.174Z,21.90
2018-07-21T14:46:54.301Z,21.90
2018-07-21T14:49:22.433Z,21.90
2018-07-21T14:51:50.587Z,21.90
2018-07-21T14:54:18.724Z,21.90
2018-07-21T14:56:46.854Z,21.90
2018-07-21T14:59:14.996Z,21.80
2018-07-21T15:01:43.145Z,21.80
2018-07-21T15:04:11.257Z,21.80
2018-07-21T15:06:39.466Z,21.80
2018-07-21T15:09:08.781Z,21.80
2018-07-21T15:11:36.934Z,21.80
2018-07-21T15:14:05.092Z,21.80
2018-07-21T15:16:33.235Z,21.80
2018-07-21T15:19:01.348Z,21.80
2018-07-21T15:21:29.481Z,21.70
2018-07-21T15:23:57.786Z,21.70
2018-07-21T15:26:25.847Z,21.70
2018-07-21T15:28:53.977Z,21.70
2018-07-21T15:31:22.197Z,21.70
2018-07-21T15:33:50.242Z,21.70
2018-07-21T15:36:18.433Z,21.70
2018-07-21T15:38:46.573Z,21.60
2018-07-21T15:43:42.612Z,21.60
2018-07-21T15:46:10.869Z,21.60
2018-07-21T15:48:39.019Z,21.60
2018-07-21T15:51:07.210Z,21.60
2018-07-21T15:53:35.549Z,21.60
2018-07-21T15:56:03.678Z,21.60
2018-07-21T15:58:31.821Z,21.60
2018-07-21T16:00:59.949Z,21.60
2018-07-21T16:03:28.091Z,21.60
2018-07-21T16:05:56.275Z,21.60
2018-07-21T16:08:24.409Z,21.60
2018-07-21T16:10:52.529Z,21.50
2018-07-21T16:13:20.681Z,21.50
2018-07-21T16:15:48.805Z,21.50
2018-07-21T16:18:16.937Z,21.50
2018-07-21T16:20:45.058Z,21.50
2018-07-21T16:23:14.077Z,21.50
2018-07-21T16:25:42.281Z,21.40
2018-07-21T16:28:10.410Z,21.40
2018-07-21T16:30:38.626Z,21.40
2018-07-21T16:35:34.786Z,21.40
2018-07-21T16:38:02.893Z,21.40
2018-07-21T16:40:31.029Z,21.30
2018-07-21T16:42:59.164Z,21.30
2018-07-21T16:45:27.313Z,21.30
2018-07-21T16:47:55.430Z,21.20
2018-07-21T16:50:23.614Z,21.20
2018-07-21T16:52:51.770Z,21.20
2018-07-21T16:55:19.906Z,21.20
2018-07-21T17:00:22.569Z,21.20
2018-07-21T17:02:50.685Z,21.10
2018-07-21T17:05:18.813Z,21.10
2018-07-21T17:07:47.031Z,21.10
2018-07-21T17:10:15.164Z,21.10
2018-07-21T17:12:43.286Z,21.10
2018-07-21T17:15:11.413Z,21.10
2018-07-21T17:17:39.545Z,21.10
2018-07-21T17:20:07.666Z,21.10
2018-07-21T17:22:35.906Z,21.10
2018-07-21T17:27:32.244Z,21.00
2018-07-21T17:30:00.437Z,21.00
2018-07-21T17:32:28.701Z,21.00
2018-07-21T17:34:56.824Z,21.00
2018-07-21T17:37:25.039Z,20.90
2018-07-21T17:39:53.209Z,20.90
2018-07-21T17:42:21.322Z,20.90
2018-07-21T17:44:49.532Z,20.90
2018-07-21T17:47:17.553Z,20.90
2018-07-21T17:49:45.713Z,20.90
2018-07-21T17:52:13.832Z,20.80
2018-07-21T17:54:41.959Z,20.80
2018-07-21T17:59:44.749Z,20.80
2018-07-21T18:02:12.948Z,20.80
2018-07-21T18:04:41.452Z,20.80
2018-07-21T18:07:09.785Z,20.80
2018-07-21T18:09:37.961Z,20.80
2018-07-21T18:12:06.101Z,20.80
2018-07-21T18:14:34.233Z,20.80
2018-07-21T18:17:02.482Z,20.80
2018-07-21T18:19:30.555Z,20.80
2018-07-21T18:21:58.681Z,20.80
2018-07-21T18:24:26.954Z,20.80
2018-07-21T18:26:55.261Z,20.80
2018-07-21T18:29:23.381Z,20.80
2018-07-21T18:31:51.546Z,20.80
2018-07-21T18:34:19.664Z,20.80
2018-07-21T18:36:47.793Z,20.80
2018-07-21T18:39:15.912Z,20.80
2018-07-21T18:41:44.321Z,20.70
2018-07-21T18:44:12.542Z,20.70
2018-07-21T18:46:40.665Z,20.70
2018-07-21T18:49:08.857Z,20.70
2018-07-21T18:51:37.086Z,20.70
2018-07-21T18:54:05.354Z,20.70
2018-07-21T18:56:33.493Z,20.70
2018-07-21T18:59:01.627Z,20.70
2018-07-21T19:01:29.741Z,20.70
2018-07-21T19:03:57.876Z,20.70
2018-07-21T19:06:26.001Z,20.70
2018-07-21T19:08:59.710Z,20.70
2018-07-21T19:11:27.973Z,20.70
2018-07-21T19:13:56.115Z,20.70
2018-07-21T19:16:29.621Z,20.70
2018-07-21T19:18:57.750Z,20.70
2018-07-21T19:21:25.885Z,20.70
2018-07-21T19:23:53.994Z,20.70
2018-07-21T19:26:27.697Z,20.70
2018-07-21T19:28:55.914Z,20.70
2018-07-21T19:31:24.117Z,20.60
2018-07-21T19:33:52.237Z,20.60
2018-07-21T19:36:20.445Z,20.60
2018-07-21T19:38:48.586Z,20.60
2018-07-21T19:41:22.295Z,20.60
2018-07-21T19:43:50.412Z,20.60
2018-07-21T19:46:18.760Z,20.60
2018-07-21T19:48:46.880Z,20.60
2018-07-21T19:51:15.014Z,20.60
2018-07-21T19:53:43.134Z,20.60
2018-07-21T19:56:11.356Z,20.60
2018-07-21T19:58:39.538Z,20.60
2018-07-21T20:01:07.685Z,20.60
2018-07-21T20:03:35.805Z,20.60
2018-07-21T20:06:04.059Z,20.60
2018-07-21T20:08:32.260Z,20.60
2018-07-21T20:11:00.356Z,20.60
2018-07-21T20:13:28.500Z,20.60
2018-07-21T20:15:56.657Z,20.60
2018-07-21T20:18:24.793Z,20.60
2018-07-21T20:20:52.933Z,20.60
2018-07-21T20:23:21.838Z,20.60
2018-07-21T20:25:50.026Z,20.60
2018-07-21T20:28:18.202Z,20.60
2018-07-21T20:30:46.413Z,20.60
2018-07-21T20:33:14.453Z,20.60
2018-07-21T20:35:42.576Z,20.60
2018-07-21T20:38:10.788Z,20.60
2018-07-21T20:40:38.965Z,20.60
2018-07-21T20:43:07.089Z,20.60
2018-07-21T20:48:03.167Z,20.60
2018-07-21T20:50:31.288Z,20.60
2018-07-21T20:52:59.914Z,20.60
2018-07-21T20:55:28.030Z,20.60
2018-07-21T20:58:00.441Z,20.60
2018-07-21T21:00:29.453Z,20.60
2018-07-21T21:02:57.553Z,20.60
2018-07-21T21:05:25.827Z,20.60
2018-07-21T21:07:53.977Z,20.60
2018-07-21T21:10:22.093Z,20.60
2018-07-21T21:12:50.230Z,20.60
2018-07-21T21:15:18.373Z,20.60
2018-07-21T21:17:46.686Z,20.60
2018-07-21T21:20:14.797Z,20.60
2018-07-21T21:22:43.055Z,20.60
2018-07-21T21:25:11.124Z,20.60
2018-07-21T21:27:39.249Z,20.60
2018-07-21T21:30:07.373Z,20.60
2018-07-21T21:32:35.500Z,20.60
2018-07-21T21:37:31.605Z,20.60
2018-07-21T21:39:59.776Z,20.60
2018-07-21T21:42:28.214Z,20.60
2018-07-21T21:44:56.301Z,20.60
2018-07-21T21:47:24.522Z,20.60
2018-07-21T21:49:52.646Z,20.60
2018-07-21T21:52:20.949Z,20.60
2018-07-21T21:54:49.077Z,20.60
2018-07-21T21:57:17.213Z,20.60
2018-07-21T21:59:45.345Z,20.60
2018-07-21T22:02:13.781Z,20.60
2018-07-21T22:04:42.479Z,20.60
2018-07-21T22:07:10.771Z,20.60
2018-07-21T22:09:38.920Z,20.60
2018-07-21T22:12:07.228Z,20.60
2018-07-21T22:14:35.363Z,20.60
2018-07-21T22:17:03.554Z,20.60
2018-07-21T22:21:59.789Z,20.60
2018-07-21T22:24:27.921Z,20.60
2018-07-21T22:26:56.054Z,20.60
2018-07-21T22:29:24.184Z,20.60
2018-07-21T22:31:52.420Z,20.60
2018-07-21T22:34:20.550Z,20.60
2018-07-21T22:36:48.685Z,20.60
2018-07-21T22:39:16.821Z,20.60
2018-07-21T22:41:44.940Z,20.60
2018-07-21T22:44:13.143Z,20.60
2018-07-21T22:46:41.209Z,20.60
2018-07-21T22:49:09.337Z,20.60
2018-07-21T22:51:37.465Z,20.60
2018-07-21T22:54:05.654Z,20.60
2018-07-21T22:56:33.778Z,20.60
2018-07-21T22:59:01.937Z,20.60
2018-07-21T23:01:30.065Z,20.60
2018-07-21T23:03:58.321Z,20.60
2018-07-21T23:06:26.442Z,20.60
2018-07-21T23:08:54.578Z,20.60
2018-07-21T23:11:22.702Z,20.60
2018-07-21T23:13:50.825Z,20.60
2018-07-21T23:16:19.014Z,20.60
2018-07-21T23:18:47.154Z,20.50
2018-07-21T23:21:15.276Z,20.60
2018-07-21T23:23:43.410Z,20.50
2018-07-21T23:26:11.669Z,20.50
2018-07-21T23:28:39.806Z,20.50
2018-07-21T23:31:08.025Z,20.50
2018-07-21T23:33:36.221Z,20.50
2018-07-21T23:36:04.754Z,20.50
2018-07-21T23:38:32.960Z,20.50
2018-07-21T23:41:01.077Z,20.50
2018-07-21T23:43:29.220Z,20.50
2018-07-21T23:45:57.341Z,20.50
2018-07-21T23:48:25.465Z,20.50
2018-07-21T23:50:53.622Z,20.50
2018-07-21T23:53:21.753Z,20.40
2018-07-21T23:55:49.882Z,20.40
2018-07-21T23:58:18.035Z,20.40
